createdAt,value
2019-04-14T00:02:11.867Z,32.30
2019-04-14T00:05:08.267Z,32.20
2019-04-14T00:08:02.402Z,32.30
2019-04-14T00:10:57.174Z,32.30
2019-04-14T00:13:50.500Z,32.30
2019-04-14T00:16:44.527Z,32.30
2019-04-14T00:19:37.343Z,32.30
2019-04-14T00:22:31.011Z,32.30
2019-04-14T00:25:24.472Z,32.30
2019-04-14T00:28:18.487Z,32.30
2019-04-14T00:31:13.081Z,32.20
2019-04-14T00:34:20.230Z,32.20
2019-04-14T00:37:34.403Z,32.30
2019-04-14T00:40:33.000Z,32.30
2019-04-14T00:43:43.885Z,32.30
2019-04-14T00:46:40.965Z,32.20
2019-04-14T00:49:35.339Z,32.20
2019-04-14T00:52:29.671Z,32.20
2019-04-14T00:55:23.067Z,32.20
2019-04-14T00:58:17.086Z,32.20
2019-04-14T01:01:11.308Z,32.20
2019-04-14T01:04:05.524Z,32.20
2019-04-14T01:07:00.322Z,32.20
2019-04-14T01:09:55.336Z,32.20
2019-04-14T01:12:49.649Z,32.20
2019-04-14T01:15:51.455Z,32.20
2019-04-14T01:18:36.807Z,32.20
2019-04-14T01:21:31.002Z,32.20
2019-04-14T01:24:24.987Z,32.20
2019-04-14T01:27:18.870Z,32.20
2019-04-14T01:30:13.234Z,32.20
2019-04-14T01:33:07.515Z,32.20
2019-04-14T01:36:01.758Z,32.20
2019-04-14T01:38:58.153Z,32.20
2019-04-14T01:41:52.085Z,32.30
2019-04-14T01:44:45.969Z,32.30
2019-04-14T01:47:39.941Z,32.30
2019-04-14T01:50:45.165Z,32.20
2019-04-14T01:53:57.384Z,32.30
2019-04-14T01:57:17.885Z,32.30
2019-04-14T02:00:38.133Z,32.20
2019-04-14T02:03:32.267Z,32.20
2019-04-14T02:06:27.062Z,32.20
2019-04-14T02:09:21.003Z,32.20
2019-04-14T02:12:14.861Z,32.20
2019-04-14T02:15:11.296Z,32.20
2019-04-14T02:18:05.638Z,32.20
2019-04-14T02:20:59.957Z,32.20
2019-04-14T02:23:53.985Z,32.20
2019-04-14T02:26:47.997Z,32.30
2019-04-14T02:29:41.073Z,32.20
2019-04-14T02:33:03.946Z,32.20
2019-04-14T02:36:10.169Z,32.30
2019-04-14T02:39:01.860Z,32.20
2019-04-14T02:41:47.356Z,32.30
2019-04-14T02:50:27.147Z,32.20
2019-04-14T02:53:30.137Z,32.20
2019-04-14T03:05:02.511Z,32.30
2019-04-14T03:13:52.122Z,32.20
2019-04-14T03:23:40.727Z,32.20
2019-04-14T03:26:33.776Z,32.30
2019-04-14T03:29:55.245Z,32.20
2019-04-14T03:33:13.859Z,32.30
2019-04-14T03:35:58.619Z,32.20
2019-04-14T03:38:26.651Z,32.30
2019-04-14T03:41:17.448Z,32.30
2019-04-14T03:44:01.254Z,32.40
2019-04-14T03:47:08.645Z,32.40
2019-04-14T03:50:00.814Z,32.30
2019-04-14T03:55:56.635Z,32.30
2019-04-14T03:58:44.965Z,32.30
2019-04-14T04:01:39.858Z,32.30
2019-04-14T04:04:33.762Z,32.30
2019-04-14T04:07:27.909Z,32.30
2019-04-14T04:10:24.638Z,32.30
2019-04-14T04:13:19.392Z,32.30
2019-04-14T04:16:27.178Z,32.30
2019-04-14T04:19:27.926Z,32.30
2019-04-14T04:22:39.650Z,32.40
2019-04-14T04:25:55.090Z,32.30
2019-04-14T04:29:09.145Z,32.30
2019-04-14T04:32:14.247Z,32.30
2019-04-14T04:35:19.573Z,32.30
2019-04-14T04:38:18.089Z,32.30
2019-04-14T04:41:12.463Z,32.30
2019-04-14T04:44:07.206Z,32.40
2019-04-14T04:47:03.395Z,32.40
2019-04-14T04:49:57.575Z,32.30
2019-04-14T04:52:51.759Z,32.40
2019-04-14T04:55:46.070Z,32.30
2019-04-14T04:58:41.333Z,32.40
2019-04-14T05:01:36.477Z,32.40
2019-04-14T05:04:30.823Z,32.40
2019-04-14T05:07:25.239Z,32.50
2019-04-14T05:10:28.554Z,32.50
2019-04-14T05:13:29.111Z,32.40
2019-04-14T05:16:23.765Z,32.50
2019-04-14T05:19:24.313Z,32.50
2019-04-14T05:22:11.304Z,32.50
2019-04-14T05:25:05.471Z,32.50
2019-04-14T05:28:00.434Z,32.40
2019-04-14T05:30:54.685Z,32.40
2019-04-14T05:33:49.026Z,32.50
2019-04-14T05:36:43.467Z,32.50
2019-04-14T05:39:37.476Z,32.50
2019-04-14T05:42:31.888Z,32.50
2019-04-14T05:45:26.175Z,32.50
2019-04-14T05:48:20.387Z,32.50
2019-04-14T05:51:15.329Z,32.60
2019-04-14T05:54:10.173Z,32.60
2019-04-14T05:57:04.488Z,32.60
2019-04-14T05:59:59.474Z,32.60
2019-04-14T06:02:53.010Z,32.60
2019-04-14T06:05:46.862Z,32.60
2019-04-14T06:08:41.790Z,32.60
2019-04-14T06:11:35.536Z,32.60
2019-04-14T06:14:28.781Z,32.50
2019-04-14T06:17:22.222Z,32.60
2019-04-14T06:20:16.289Z,32.60
2019-04-14T06:23:09.512Z,32.60
2019-04-14T06:26:03.381Z,32.60
2019-04-14T06:28:56.849Z,32.60
2019-04-14T06:32:23.214Z,32.60
2019-04-14T06:35:33.045Z,32.60
2019-04-14T06:38:33.008Z,32.60
2019-04-14T06:41:26.360Z,32.60
2019-04-14T06:44:19.073Z,32.60
2019-04-14T06:47:12.119Z,32.60
2019-04-14T06:50:05.078Z,32.70
2019-04-14T06:52:58.452Z,32.70
2019-04-14T06:55:51.510Z,32.60
2019-04-14T06:58:44.920Z,32.60
2019-04-14T07:01:38.999Z,32.60
2019-04-14T07:04:31.978Z,32.70
2019-04-14T07:07:25.578Z,32.60
2019-04-14T07:10:18.610Z,32.70
2019-04-14T07:13:13.949Z,32.70
2019-04-14T07:16:07.230Z,32.70
2019-04-14T07:19:00.221Z,32.60
2019-04-14T07:21:53.405Z,32.60
2019-04-14T07:24:46.285Z,32.60
2019-04-14T07:27:39.421Z,32.70
2019-04-14T07:30:51.813Z,32.70
2019-04-14T07:34:02.031Z,32.70
2019-04-14T07:37:13.759Z,32.70
2019-04-14T07:40:36.992Z,32.60
2019-04-14T07:43:38.805Z,32.60
2019-04-14T07:46:50.981Z,32.60
2019-04-14T07:50:13.670Z,32.60
2019-04-14T07:53:19.804Z,32.70
2019-04-14T07:56:33.707Z,32.70
2019-04-14T07:59:36.973Z,32.70
2019-04-14T08:02:51.108Z,32.70
2019-04-14T08:05:45.497Z,32.70
2019-04-14T08:08:39.607Z,32.70
2019-04-14T08:11:32.922Z,32.70
2019-04-14T08:14:26.628Z,32.70
2019-04-14T08:17:20.314Z,32.70
2019-04-14T08:20:26.409Z,32.70
2019-04-14T08:23:09.274Z,32.70
2019-04-14T08:26:04.611Z,32.70
2019-04-14T08:28:57.720Z,32.70
2019-04-14T08:31:51.530Z,32.70
2019-04-14T08:34:46.409Z,32.70
2019-04-14T08:37:39.741Z,32.70
2019-04-14T08:40:33.253Z,32.70
2019-04-14T08:43:54.672Z,32.70
2019-04-14T08:47:05.686Z,32.70
2019-04-14T08:50:06.744Z,32.70
2019-04-14T08:53:04.105Z,32.70
2019-04-14T08:56:31.089Z,32.70
2019-04-14T08:59:45.230Z,32.70
2019-04-14T09:02:52.030Z,32.70
2019-04-14T09:06:01.280Z,32.70
2019-04-14T09:08:59.446Z,32.70
2019-04-14T09:11:56.498Z,32.70
2019-04-14T09:14:56.832Z,32.70
2019-04-14T09:17:44.945Z,32.70
2019-04-14T09:20:37.726Z,32.70
2019-04-14T09:23:30.890Z,32.70
2019-04-14T09:26:27.369Z,32.70
2019-04-14T09:29:21.460Z,32.70
2019-04-14T09:32:15.829Z,32.70
2019-04-14T09:35:10.947Z,32.70
2019-04-14T09:38:05.415Z,32.70
2019-04-14T09:41:01.014Z,32.70
2019-04-14T09:43:55.638Z,32.70
2019-04-14T09:46:50.306Z,32.70
2019-04-14T09:49:44.345Z,32.70
2019-04-14T09:52:38.307Z,32.70
2019-04-14T09:55:31.655Z,32.70
2019-04-14T09:58:25.285Z,32.70
2019-04-14T10:01:18.328Z,32.70
2019-04-14T10:04:13.258Z,32.80
2019-04-14T10:07:08.125Z,32.70
2019-04-14T10:10:02.288Z,32.70
2019-04-14T10:12:56.812Z,32.70
2019-04-14T10:15:49.666Z,32.70
2019-04-14T10:18:42.406Z,32.80
2019-04-14T10:21:36.156Z,32.80
2019-04-14T10:24:34.553Z,32.80
2019-04-14T10:27:29.313Z,32.70
2019-04-14T10:30:22.421Z,32.80
2019-04-14T10:33:16.477Z,32.70
2019-04-14T10:36:09.559Z,32.70
2019-04-14T10:39:03.520Z,32.70
2019-04-14T10:41:57.692Z,32.80
2019-04-14T10:44:51.586Z,32.80
2019-04-14T10:47:45.245Z,32.70
2019-04-14T10:50:40.154Z,32.70
2019-04-14T10:53:33.519Z,32.70
2019-04-14T10:56:27.636Z,32.70
2019-04-14T10:59:22.399Z,32.70
2019-04-14T11:02:15.930Z,32.70
2019-04-14T11:05:09.302Z,32.70
2019-04-14T11:08:03.834Z,32.70
2019-04-14T11:10:56.971Z,32.70
2019-04-14T11:13:50.390Z,32.70
2019-04-14T11:16:43.278Z,32.80
2019-04-14T11:19:37.602Z,32.70
2019-04-14T11:22:30.860Z,32.80
2019-04-14T11:25:25.085Z,32.80
2019-04-14T11:28:18.287Z,32.80
2019-04-14T11:31:11.225Z,32.80
2019-04-14T11:34:04.619Z,32.70
2019-04-14T11:37:10.624Z,32.70
2019-04-14T11:40:05.479Z,32.80
2019-04-14T11:42:59.022Z,32.80
2019-04-14T11:45:51.971Z,32.80
2019-04-14T11:48:44.983Z,32.80
2019-04-14T11:51:39.345Z,32.80
2019-04-14T11:54:32.313Z,32.70
2019-04-14T11:57:25.551Z,32.70
2019-04-14T12:00:32.011Z,32.70
2019-04-14T12:03:34.324Z,32.70
2019-04-14T12:06:53.212Z,32.80
2019-04-14T12:09:52.120Z,32.70
2019-04-14T12:12:45.964Z,32.70
2019-04-14T12:15:39.246Z,32.80
2019-04-14T12:18:32.864Z,32.70
2019-04-14T12:21:26.582Z,32.70
2019-04-14T12:24:20.645Z,32.70
2019-04-14T12:27:14.525Z,32.70
2019-04-14T12:30:11.111Z,32.70
2019-04-14T12:33:05.552Z,32.80
2019-04-14T12:35:59.732Z,32.70
2019-04-14T12:38:53.504Z,32.70
2019-04-14T12:41:52.315Z,32.70
2019-04-14T12:45:21.483Z,32.80
2019-04-14T12:48:44.675Z,32.70
2019-04-14T12:51:40.252Z,32.70
2019-04-14T12:54:33.132Z,32.70
2019-04-14T12:57:35.252Z,32.70
2019-04-14T13:00:37.429Z,32.70
2019-04-14T13:03:31.341Z,32.70
2019-04-14T13:06:26.102Z,32.70
2019-04-14T13:09:22.179Z,32.70
2019-04-14T13:12:16.332Z,32.70
2019-04-14T13:15:12.782Z,32.70
2019-04-14T13:18:05.949Z,32.70
2019-04-14T13:20:59.695Z,32.70
2019-04-14T13:23:53.791Z,32.70
2019-04-14T13:26:46.703Z,32.70
2019-04-14T13:29:39.649Z,32.70
2019-04-14T13:32:36.115Z,32.70
2019-04-14T13:35:26.831Z,32.70
2019-04-14T13:38:20.678Z,32.70
2019-04-14T13:41:14.981Z,32.70
2019-04-14T13:44:07.990Z,32.70
2019-04-14T13:47:01.006Z,32.80
2019-04-14T13:49:53.854Z,32.80
2019-04-14T13:52:48.746Z,32.80
2019-04-14T13:55:41.835Z,32.80
2019-04-14T13:58:38.124Z,32.80
2019-04-14T14:01:29.947Z,32.80
2019-04-14T14:04:23.415Z,32.80
2019-04-14T14:07:16.835Z,32.90
2019-04-14T14:10:11.295Z,32.90
2019-04-14T14:13:12.030Z,32.80
2019-04-14T14:16:38.200Z,32.80
2019-04-14T14:19:52.657Z,32.90
2019-04-14T14:23:01.885Z,32.90
2019-04-14T14:26:00.270Z,32.90
2019-04-14T14:28:53.624Z,32.90
2019-04-14T14:31:47.821Z,32.90
2019-04-14T14:34:42.178Z,32.90
2019-04-14T14:37:35.974Z,32.90
2019-04-14T14:40:30.374Z,32.90
2019-04-14T14:43:25.035Z,32.90
2019-04-14T14:46:29.008Z,32.90
2019-04-14T14:49:26.633Z,33.00
2019-04-14T14:52:21.954Z,32.90
2019-04-14T14:55:16.027Z,32.90
2019-04-14T14:58:09.376Z,32.90
2019-04-14T15:01:03.215Z,32.90
2019-04-14T15:03:57.842Z,32.90
2019-04-14T15:06:52.265Z,32.90
2019-04-14T15:09:45.716Z,32.90
2019-04-14T15:12:39.487Z,32.90
2019-04-14T15:15:34.564Z,32.90
2019-04-14T15:18:29.596Z,32.90
2019-04-14T15:21:24.084Z,32.90
2019-04-14T15:24:18.822Z,32.90
2019-04-14T15:27:12.019Z,32.90
2019-04-14T15:30:06.577Z,32.90
2019-04-14T15:32:59.796Z,32.90
2019-04-14T15:35:53.124Z,32.90
2019-04-14T15:38:46.194Z,32.90
2019-04-14T15:41:41.118Z,32.90
2019-04-14T15:44:33.851Z,32.80
2019-04-14T15:47:26.825Z,32.80
2019-04-14T15:50:20.698Z,32.80
2019-04-14T15:53:13.720Z,32.90
2019-04-14T15:56:07.329Z,32.90
2019-04-14T15:59:06.139Z,32.80
2019-04-14T16:02:12.810Z,32.80
2019-04-14T16:05:12.681Z,32.90
2019-04-14T16:08:17.244Z,32.80
2019-04-14T16:11:35.325Z,32.80
2019-04-14T16:15:01.738Z,32.80
2019-04-14T16:18:12.185Z,32.90
2019-04-14T16:21:06.345Z,32.80
2019-04-14T16:24:00.431Z,32.80
2019-04-14T16:27:03.944Z,32.80
2019-04-14T16:30:24.293Z,32.80
2019-04-14T16:33:32.586Z,32.80
2019-04-14T16:36:26.515Z,32.80
2019-04-14T16:39:20.004Z,32.90
2019-04-14T16:42:13.253Z,32.80
2019-04-14T16:45:06.869Z,32.80
2019-04-14T16:48:00.736Z,32.80
2019-04-14T16:50:53.951Z,32.80
2019-04-14T16:53:47.987Z,32.80
2019-04-14T16:57:02.154Z,32.80
2019-04-14T16:59:56.045Z,32.80
2019-04-14T17:02:50.243Z,32.80
2019-04-14T17:05:43.732Z,32.90
2019-04-14T17:08:39.379Z,32.80
2019-04-14T17:11:32.246Z,32.80
2019-04-14T17:14:39.849Z,32.80
2019-04-14T17:17:56.968Z,32.80
2019-04-14T17:21:14.191Z,32.80
2019-04-14T17:24:16.673Z,32.80
2019-04-14T17:27:34.239Z,32.80
2019-04-14T17:30:36.739Z,32.80
2019-04-14T17:33:51.005Z,32.80
2019-04-14T17:36:52.763Z,32.80
2019-04-14T17:39:50.429Z,32.80
2019-04-14T17:42:52.197Z,32.90
2019-04-14T17:45:52.254Z,32.80
2019-04-14T17:49:02.458Z,32.90
2019-04-14T17:52:12.713Z,32.80
2019-04-14T17:55:14.804Z,32.80
2019-04-14T17:58:25.921Z,32.80
2019-04-14T18:01:43.187Z,32.80
2019-04-14T18:05:11.299Z,32.80
2019-04-14T18:08:19.719Z,32.90
2019-04-14T18:11:30.686Z,32.80
2019-04-14T18:14:30.537Z,32.80
2019-04-14T18:17:43.538Z,32.90
2019-04-14T18:20:58.711Z,32.90
2019-04-14T18:23:52.327Z,32.90
2019-04-14T18:26:46.552Z,32.90
2019-04-14T18:29:50.950Z,32.90
2019-04-14T18:33:09.427Z,32.90
2019-04-14T18:36:11.760Z,32.90
2019-04-14T18:39:26.862Z,32.90
2019-04-14T18:42:30.712Z,32.90
2019-04-14T18:45:31.459Z,32.90
2019-04-14T18:48:41.977Z,32.90
2019-04-14T18:51:52.573Z,32.90
2019-04-14T18:55:04.736Z,32.90
2019-04-14T18:58:13.180Z,32.80
2019-04-14T19:01:11.185Z,32.90
2019-04-14T19:04:06.547Z,32.90
2019-04-14T19:07:00.103Z,32.90
2019-04-14T19:09:53.682Z,32.90
2019-04-14T19:13:10.712Z,32.90
2019-04-14T19:16:08.717Z,32.80
2019-04-14T19:19:03.512Z,32.80
2019-04-14T19:21:57.241Z,32.70
2019-04-14T19:24:50.531Z,32.70
2019-04-14T19:27:44.058Z,32.70
2019-04-14T19:30:37.179Z,32.70
2019-04-14T19:33:30.743Z,32.70
2019-04-14T19:36:24.474Z,32.70
2019-04-14T19:39:18.364Z,32.70
2019-04-14T19:42:11.811Z,32.70
2019-04-14T19:45:05.834Z,32.70
2019-04-14T19:47:59.584Z,32.70
2019-04-14T19:50:53.188Z,32.70
2019-04-14T19:53:46.284Z,32.70
2019-04-14T19:56:39.594Z,32.70
2019-04-14T19:59:32.736Z,32.70
2019-04-14T20:02:26.307Z,32.80
2019-04-14T20:05:19.989Z,32.70
2019-04-14T20:08:13.341Z,32.70
2019-04-14T20:11:07.019Z,32.70
2019-04-14T20:14:00.764Z,32.70
2019-04-14T20:17:06.541Z,32.70
2019-04-14T20:20:18.794Z,32.70
2019-04-14T20:23:22.241Z,32.70
2019-04-14T20:26:31.996Z,32.70
2019-04-14T20:29:47.275Z,32.70
2019-04-14T20:32:43.129Z,32.70
2019-04-14T20:35:37.017Z,32.70
2019-04-14T20:38:30.636Z,32.70
2019-04-14T20:41:23.914Z,32.70
2019-04-14T20:44:17.551Z,32.70
2019-04-14T20:47:11.612Z,32.70
2019-04-14T20:50:05.006Z,32.70
2019-04-14T20:52:59.150Z,32.70
2019-04-14T20:55:52.192Z,32.70
2019-04-14T20:58:45.232Z,32.70
2019-04-14T21:01:40.918Z,32.70
2019-04-14T21:04:50.870Z,32.70
2019-04-14T21:08:17.491Z,32.70
2019-04-14T21:11:34.964Z,32.70
2019-04-14T21:14:48.967Z,32.70
2019-04-14T21:17:52.547Z,32.70
2019-04-14T21:21:10.023Z,32.70
2019-04-14T21:24:19.399Z,32.70
2019-04-14T21:27:32.083Z,32.70
2019-04-14T21:30:34.779Z,32.70
2019-04-14T21:33:44.798Z,32.70
2019-04-14T21:36:47.153Z,32.70
2019-04-14T21:40:13.969Z,32.70
2019-04-14T21:43:07.436Z,32.70
2019-04-14T21:46:01.325Z,32.70
2019-04-14T21:48:54.950Z,32.70
2019-04-14T21:52:01.364Z,32.70
2019-04-14T21:54:54.529Z,32.70
2019-04-14T21:58:08.723Z,32.70
2019-04-14T22:01:45.621Z,32.70
2019-04-14T22:05:09.263Z,32.70
2019-04-14T22:08:15.423Z,32.70
2019-04-14T22:11:11.087Z,32.70
2019-04-14T22:14:05.179Z,32.70
2019-04-14T22:16:58.692Z,32.70
2019-04-14T22:19:52.342Z,32.70
2019-04-14T22:22:46.248Z,32.70
2019-04-14T22:25:40.259Z,32.60
2019-04-14T22:28:33.486Z,32.70
2019-04-14T22:31:26.944Z,32.70
2019-04-14T22:34:20.184Z,32.70
2019-04-14T22:37:14.034Z,32.70
2019-04-14T22:40:08.806Z,32.80
2019-04-14T22:43:02.654Z,32.70
2019-04-14T22:45:56.445Z,32.80
2019-04-14T22:48:50.438Z,32.70
2019-04-14T22:51:44.099Z,32.70
2019-04-14T22:54:37.646Z,32.70
2019-04-14T22:57:31.665Z,32.70
2019-04-14T23:01:02.056Z,32.70
2019-04-14T23:04:24.371Z,32.70
2019-04-14T23:07:43.944Z,32.70
2019-04-14T23:11:00.750Z,32.80
2019-04-14T23:14:10.300Z,32.70
2019-04-14T23:17:21.093Z,32.70
2019-04-14T23:20:17.589Z,32.70
2019-04-14T23:23:15.262Z,32.70
2019-04-14T23:26:08.758Z,32.80
2019-04-14T23:29:01.451Z,32.70
2019-04-14T23:31:54.450Z,32.80
2019-04-14T23:34:47.598Z,32.70
2019-04-14T23:37:40.826Z,32.80
2019-04-14T23:40:34.398Z,32.80
2019-04-14T23:43:28.529Z,32.80
2019-04-14T23:46:22.157Z,32.70
2019-04-14T23:49:15.985Z,32.80
2019-04-14T23:52:08.982Z,32.80
2019-04-14T23:55:02.338Z,32.80
2019-04-14T23:57:55.899Z,32.80
